Time;durP1;ratioP1;P1;durP2;ratioP2;P2;SDS_P1;SDS_P2;PMS_P1;PMS_P2;Temp;Humidity;BMP_temperature;BMP_pressure;BME280_temperature;BME280_humidity;BME280_pressure;Samples;Min_cycle;Max_cycle;Signal;HPM_P1;HPM_P2
2022/08/17 00:00:28;;;;;;;15.82;12.52;;;;;28.00;100907.00;;;;5087499;28;20241;-80
2022/08/17 00:03:01;;;;;;;15.45;13.23;;;;;28.00;100900.00;;;;5088281;28;20583;-79
2022/08/17 00:05:32;;;;;;;13.60;11.63;;;;;28.00;100891.00;;;;5085629;28;20691;-79
2022/08/17 00:08:02;;;;;;;13.48;11.35;;;;;28.00;100879.00;;;;5086441;28;20195;-79
2022/08/17 00:10:29;;;;;;;12.30;11.07;;;;;28.00;100884.00;;;;5086479;28;20707;-79
2022/08/17 00:12:57;;;;;;;12.40;11.20;;;;;28.00;100887.00;;;;5090496;28;20202;-80
2022/08/17 00:15:25;;;;;;;12.98;11.60;;;;;28.00;100884.00;;;;5084406;28;20575;-79
2022/08/17 00:17:52;;;;;;;13.55;12.25;;;;;28.00;100874.00;;;;5091479;28;20210;-79
2022/08/17 00:20:20;;;;;;;13.50;12.10;;;;;28.00;100874.00;;;;5090791;28;20222;-79
2022/08/17 00:22:49;;;;;;;14.75;13.25;;;;;28.00;100881.00;;;;5082691;28;20652;-79
2022/08/17 00:25:21;;;;;;;13.23;11.77;;;;;28.00;100871.00;;;;5081815;28;20206;-78
2022/08/17 00:27:48;;;;;;;12.27;11.00;;;;;28.00;100875.00;;;;5091192;28;20237;-79
2022/08/17 00:30:15;;;;;;;13.88;12.48;;;;;27.90;100875.00;;;;5087759;28;20202;-78
2022/08/17 00:32:45;;;;;;;13.40;12.00;;;;;27.90;100867.00;;;;5086916;28;20288;-78
2022/08/17 00:35:16;;;;;;;14.88;12.65;;;;;27.90;100871.00;;;;5089612;28;20203;-79
2022/08/17 00:37:44;;;;;;;11.82;10.63;;;;;27.90;100867.00;;;;5090894;28;20209;-79
2022/08/17 00:40:14;;;;;;;15.43;12.70;;;;;27.90;100865.00;;;;5089982;28;20203;-79
2022/08/17 00:42:43;;;;;;;11.35;10.18;;;;;27.90;100856.00;;;;5088373;28;20195;-78
2022/08/17 00:45:14;;;;;;;13.98;12.43;;;;;27.80;100860.00;;;;5089328;28;20667;-79
2022/08/17 00:47:41;;;;;;;10.98;9.88;;;;;27.80;100863.00;;;;5090462;28;20209;-79
2022/08/17 00:50:12;;;;;;;14.07;12.13;;;;;27.80;100866.00;;;;5087749;28;20690;-80
2022/08/17 00:52:45;;;;;;;16.25;12.05;;;;;27.80;100857.00;;;;5090597;28;20206;-79
2022/08/17 00:55:14;;;;;;;13.45;12.00;;;;;27.80;100856.00;;;;5079908;28;20203;-79
2022/08/17 00:57:44;;;;;;;13.70;12.25;;;;;27.80;100859.00;;;;5069649;28;20195;-79
2022/08/17 01:00:15;;;;;;;13.95;12.30;;;;;27.80;100849.00;;;;5086861;28;20206;-79
2022/08/17 01:02:46;;;;;;;11.02;10.00;;;;;27.70;100846.00;;;;5089324;28;20203;-79
2022/08/17 01:05:20;;;;;;;13.65;12.23;;;;;27.70;100838.00;;;;5088791;28;20190;-79
2022/08/17 01:07:49;;;;;;;11.93;10.35;;;;;27.70;100838.00;;;;5089718;28;20194;-79
2022/08/17 01:10:21;;;;;;;12.73;11.40;;;;;27.70;100834.00;;;;5089719;28;20214;-78
2022/08/17 01:12:49;;;;;;;12.60;11.27;;;;;27.70;100827.00;;;;5089659;28;20212;-79
2022/08/17 01:15:16;;;;;;;14.27;12.65;;;;;27.70;100823.00;;;;5088203;28;20198;-79
2022/08/17 01:17:44;;;;;;;13.35;12.02;;;;;27.70;100824.00;;;;5090052;28;20198;-79
2022/08/17 01:20:12;;;;;;;12.88;11.57;;;;;27.70;100823.00;;;;5089373;28;20205;-80
2022/08/17 01:22:40;;;;;;;12.90;11.60;;;;;27.60;100828.00;;;;5087682;28;20232;-79
2022/08/17 01:25:09;;;;;;;13.82;12.43;;;;;27.60;100829.00;;;;5084550;28;20194;-79
2022/08/17 01:27:37;;;;;;;15.38;12.57;;;;;27.60;100819.00;;;;5083233;28;20230;-79
2022/08/17 01:30:09;;;;;;;12.35;10.85;;;;;27.60;100813.00;;;;5085766;28;20198;-79
2022/08/17 01:32:36;;;;;;;16.05;11.02;;;;;27.60;100817.00;;;;5087619;28;20198;-79
2022/08/17 01:35:05;;;;;;;13.40;12.10;;;;;27.50;100814.00;;;;5086030;28;20194;-80
2022/08/17 01:37:35;;;;;;;13.05;11.82;;;;;27.50;100809.00;;;;5088953;28;20206;-80
2022/08/17 01:40:12;;;;;;;13.10;11.57;;;;;27.50;100823.00;;;;5088629;28;20199;-79
2022/08/17 01:42:44;;;;;;;14.57;12.52;;;;;27.50;100824.00;;;;5089047;28;20225;-78
2022/08/17 01:45:15;;;;;;;13.32;12.00;;;;;27.50;100833.00;;;;5078408;28;20198;-79
2022/08/17 01:47:43;;;;;;;14.38;12.85;;;;;27.50;100835.00;;;;5086526;28;20194;-79
2022/08/17 01:50:14;;;;;;;12.88;11.43;;;;;27.40;100835.00;;;;5086239;28;20198;-79
2022/08/17 01:52:43;;;;;;;13.02;11.65;;;;;27.50;100838.00;;;;5089151;28;20198;-79
2022/08/17 01:55:13;;;;;;;12.55;11.35;;;;;27.40;100848.00;;;;5086639;28;20214;-79
2022/08/17 01:57:40;;;;;;;12.13;10.95;;;;;27.50;100857.00;;;;5086208;28;20644;-79
2022/08/17 02:00:10;;;;;;;14.45;11.07;;;;;27.50;100860.00;;;;5088612;28;20210;-79
2022/08/17 02:02:37;;;;;;;13.15;10.82;;;;;27.50;100867.00;;;;5088765;28;20308;-79
2022/08/17 02:05:05;;;;;;;13.63;11.82;;;;;27.50;100874.00;;;;5087457;28;20660;-79
2022/08/17 02:07:35;;;;;;;12.50;11.30;;;;;27.50;100876.00;;;;5089613;28;20578;-80
2022/08/17 02:10:03;;;;;;;14.02;11.32;;;;;27.50;100881.00;;;;5089628;28;20317;-79
2022/08/17 02:12:32;;;;;;;12.52;11.23;;;;;27.50;100890.00;;;;5088919;28;20900;-80
2022/08/17 02:14:59;;;;;;;12.98;11.43;;;;;27.40;100892.00;;;;5086619;28;20242;-79
2022/08/17 02:17:27;;;;;;;13.20;11.85;;;;;27.40;100895.00;;;;5088740;28;20198;-79
2022/08/17 02:19:54;;;;;;;11.80;10.50;;;;;27.40;100901.00;;;;5088413;28;20205;-80
2022/08/17 02:22:23;;;;;;;14.75;12.68;;;;;27.40;100888.00;;;;5075792;28;20234;-81
2022/08/17 02:24:52;;;;;;;12.38;11.18;;;;;27.30;100895.00;;;;5068851;28;20646;-79
2022/08/17 02:27:19;;;;;;;13.05;11.57;;;;;27.30;100886.00;;;;5086903;28;20233;-79
2022/08/17 02:29:48;;;;;;;15.35;11.60;;;;;27.30;100883.00;;;;5083894;28;20194;-79
2022/08/17 02:32:21;;;;;;;13.57;11.00;;;;;27.20;100870.00;;;;5086722;28;20202;-79
2022/08/17 02:34:49;;;;;;;12.40;11.10;;;;;27.20;100866.00;;;;5087488;28;20206;-80
2022/08/17 02:37:17;;;;;;;11.63;10.43;;;;;27.20;100858.00;;;;5087123;28;20202;-80
2022/08/17 02:39:44;;;;;;;13.35;11.52;;;;;27.20;100857.00;;;;5085136;28;20199;-79
2022/08/17 02:42:12;;;;;;;11.90;10.68;;;;;27.10;100862.00;;;;5088015;28;20303;-80
2022/08/17 02:44:40;;;;;;;11.90;10.70;;;;;27.10;100855.00;;;;5088355;28;20874;-80
2022/08/17 02:47:10;;;;;;;12.10;10.90;;;;;27.10;100860.00;;;;5082191;28;20198;-80
2022/08/17 02:49:38;;;;;;;14.43;12.30;;;;;27.10;100854.00;;;;5087773;28;20726;-80
2022/08/17 02:52:07;;;;;;;13.85;11.93;;;;;27.10;100850.00;;;;5088641;28;20206;-80
2022/08/17 02:54:35;;;;;;;12.07;10.40;;;;;27.10;100850.00;;;;5088077;28;20217;-81
2022/08/17 02:57:02;;;;;;;11.35;10.20;;;;;27.10;100846.00;;;;5085786;28;20661;-78
2022/08/17 02:59:30;;;;;;;17.20;10.85;;;;;27.10;100849.00;;;;5086898;28;20201;-78
2022/08/17 03:01:58;;;;;;;12.98;11.45;;;;;27.10;100843.00;;;;5088565;28;20226;-78
2022/08/17 03:04:26;;;;;;;12.30;11.00;;;;;27.10;100844.00;;;;5086951;28;20210;-78
2022/08/17 03:06:53;;;;;;;12.70;11.40;;;;;27.10;100830.00;;;;5084552;28;20657;-78
2022/08/17 03:09:21;;;;;;;12.95;11.45;;;;;27.10;100830.00;;;;5086957;28;20206;-78
2022/08/17 03:11:49;;;;;;;14.73;11.93;;;;;27.00;100826.00;;;;5074791;28;20210;-78
2022/08/17 03:14:17;;;;;;;11.57;10.43;;;;;27.00;100828.00;;;;5077770;28;20762;-78
2022/08/17 03:16:44;;;;;;;11.25;10.13;;;;;27.00;100821.00;;;;5085326;28;20206;-78
2022/08/17 03:19:11;;;;;;;13.10;11.23;;;;;27.00;100817.00;;;;5087186;28;20209;-78
2022/08/17 03:21:40;;;;;;;12.13;10.82;;;;;27.00;100819.00;;;;5087853;28;20932;-78
2022/08/17 03:24:10;;;;;;;12.25;11.02;;;;;26.90;100824.00;;;;5086780;28;20194;-78
2022/08/17 03:26:37;;;;;;;11.55;10.45;;;;;27.00;100825.00;;;;5086119;28;20696;-78
2022/08/17 03:29:05;;;;;;;11.63;10.38;;;;;27.00;100829.00;;;;5087257;28;20202;-79
2022/08/17 03:31:32;;;;;;;12.23;10.80;;;;;26.90;100828.00;;;;5087498;28;20198;-78
2022/08/17 03:33:59;;;;;;;10.77;9.77;;;;;26.90;100834.00;;;;5086283;28;20190;-79
2022/08/17 03:36:27;;;;;;;12.30;11.07;;;;;26.90;100844.00;;;;5084947;28;20235;-78
2022/08/17 03:38:55;;;;;;;12.10;10.57;;;;;26.90;100857.00;;;;5086591;28;20205;-79
2022/08/17 03:41:23;;;;;;;13.23;11.73;;;;;26.90;100869.00;;;;5087090;28;20261;-78
2022/08/17 03:43:50;;;;;;;13.07;10.95;;;;;26.90;100863.00;;;;5088426;28;20202;-78
2022/08/17 03:57:32;;;;;;;10.82;9.35;;;;;26.70;100880.00;;;;5090162;28;20687;-78
2022/08/17 03:59:59;;;;;;;10.82;9.70;;;;;26.70;100878.00;;;;5091055;28;20210;-80
2022/08/17 04:02:30;;;;;;;13.23;10.20;;;;;26.70;100876.00;;;;5089862;28;20275;-79
2022/08/17 04:04:58;;;;;;;10.55;9.55;;;;;26.70;100874.00;;;;5089703;28;20412;-78
2022/08/17 04:07:28;;;;;;;9.90;8.98;;;;;26.70;100875.00;;;;5090957;28;20199;-79
2022/08/17 04:09:58;;;;;;;11.05;9.30;;;;;26.70;100876.00;;;;5088784;28;20605;-79
2022/08/17 04:12:29;;;;;;;10.60;9.50;;;;;26.70;100874.00;;;;5089991;28;20213;-79
2022/08/17 04:14:56;;;;;;;10.05;9.10;;;;;26.70;100876.00;;;;5090365;28;20606;-78
2022/08/17 04:17:26;;;;;;;9.13;8.27;;;;;26.70;100879.00;;;;5070020;28;20597;-79
2022/08/17 04:19:55;;;;;;;9.77;8.52;;;;;26.70;100890.00;;;;5071118;28;20549;-79
2022/08/17 04:22:22;;;;;;;12.57;8.82;;;;;26.70;100892.00;;;;5070860;28;20241;-79
2022/08/17 04:24:50;;;;;;;11.50;9.75;;;;;26.60;100884.00;;;;5079036;28;20213;-79
2022/08/17 04:27:21;;;;;;;9.70;8.52;;;;;26.60;100882.00;;;;5090627;28;20576;-79
2022/08/17 04:29:48;;;;;;;9.23;8.32;;;;;26.60;100878.00;;;;5091511;28;20217;-79
2022/08/17 04:32:16;;;;;;;10.27;9.18;;;;;26.50;100874.00;;;;5089285;28;20195;-79
2022/08/17 04:34:43;;;;;;;9.77;8.77;;;;;26.50;100885.00;;;;5068592;28;20260;-79
2022/08/17 04:37:10;;;;;;;9.75;8.75;;;;;26.50;100880.00;;;;5090861;28;20289;-79
2022/08/17 04:39:38;;;;;;;11.13;8.38;;;;;26.50;100885.00;;;;5088418;28;20210;-79
2022/08/17 04:42:15;;;;;;;9.32;8.40;;;;;26.40;100879.00;;;;5091148;28;20229;-79
2022/08/17 04:44:44;;;;;;;9.45;8.55;;;;;26.40;100874.00;;;;5088483;28;20613;-78
2022/08/17 04:47:11;;;;;;;10.63;9.23;;;;;26.40;100875.00;;;;5088886;28;20209;-78
2022/08/17 04:49:39;;;;;;;9.55;8.65;;;;;26.40;100874.00;;;;5088239;28;20206;-80
2022/08/17 04:52:06;;;;;;;10.80;9.63;;;;;26.30;100871.00;;;;5090543;28;20195;-78
2022/08/17 04:54:33;;;;;;;11.20;9.98;;;;;26.30;100873.00;;;;5089965;28;20194;-78
2022/08/17 04:57:00;;;;;;;10.60;9.40;;;;;26.30;100870.00;;;;5087987;28;20198;-79
2022/08/17 04:59:28;;;;;;;11.80;9.25;;;;;26.30;100871.00;;;;5088352;28;20194;-78
2022/08/17 05:01:56;;;;;;;11.18;10.13;;;;;26.30;100867.00;;;;5080945;28;20237;-78
2022/08/17 05:04:26;;;;;;;10.23;9.23;;;;;26.30;100863.00;;;;5079497;28;20194;-78
2022/08/17 05:06:54;;;;;;;10.70;9.63;;;;;26.20;100859.00;;;;5079130;28;20198;-78
2022/08/17 05:09:22;;;;;;;11.02;9.85;;;;;26.20;100868.00;;;;5081065;28;20212;-78
2022/08/17 05:11:49;;;;;;;12.98;10.55;;;;;26.20;100870.00;;;;5088296;28;20217;-78
2022/08/17 05:14:17;;;;;;;11.05;9.80;;;;;26.20;100866.00;;;;5082506;28;20224;-78
2022/08/17 05:16:47;;;;;;;11.80;10.35;;;;;26.20;100872.00;;;;5079721;28;20759;-79
2022/08/17 05:19:15;;;;;;;10.75;9.73;;;;;26.20;100876.00;;;;5079427;28;20191;-79
2022/08/17 05:21:42;;;;;;;10.52;9.43;;;;;26.20;100878.00;;;;5079607;28;20213;-79
2022/08/17 05:24:11;;;;;;;10.07;9.07;;;;;26.20;100877.00;;;;5081805;28;20194;-78
2022/08/17 05:26:38;;;;;;;10.77;9.68;;;;;26.20;100875.00;;;;5081035;28;20271;-79
2022/08/17 05:29:05;;;;;;;10.38;9.35;;;;;26.20;100866.00;;;;5080577;28;20206;-79
2022/08/17 05:31:33;;;;;;;12.20;9.30;;;;;26.20;100872.00;;;;5080443;28;20561;-79
2022/08/17 05:34:00;;;;;;;9.98;8.98;;;;;26.20;100865.00;;;;5079334;28;20229;-79
2022/08/17 05:36:29;;;;;;;12.23;9.25;;;;;26.20;100863.00;;;;5089599;28;20205;-78
2022/08/17 05:38:56;;;;;;;11.27;8.52;;;;;26.30;100861.00;;;;5090252;28;20595;-79
2022/08/17 05:41:23;;;;;;;13.27;8.45;;;;;26.30;100853.00;;;;5082160;28;20206;-79
2022/08/17 05:43:50;;;;;;;7.93;7.13;;;;;26.30;100855.00;;;;5079725;28;20593;-77
2022/08/17 05:46:25;;;;;;;10.10;7.45;;;;;26.20;100851.00;;;;5080629;28;20206;-78
2022/08/17 05:48:55;;;;;;;7.10;6.40;;;;;26.30;100845.00;;;;5078165;28;20198;-78
2022/08/17 05:51:54;;;;;;;9.38;6.30;;;;;26.10;100845.00;;;;5079885;28;20193;-79
2022/08/17 05:54:38;;;;;;;5.32;4.75;;;;;26.20;100843.00;;;;5084464;28;20240;-77
2022/08/17 05:57:18;;;;;;;7.10;4.82;;;;;26.20;100848.00;;;;5083981;28;20198;-79
2022/08/17 05:59:54;;;;;;;4.93;4.40;;;;;26.20;100849.00;;;;5088090;28;20194;-79
2022/08/17 06:02:28;;;;;;;4.50;4.05;;;;;26.20;100856.00;;;;5087497;28;20229;-78
2022/08/17 06:05:10;;;;;;;4.03;3.63;;;;;26.20;100858.00;;;;5089637;28;20195;-78
2022/08/17 06:07:49;;;;;;;4.63;3.85;;;;;26.20;100866.00;;;;5086871;28;20667;-78
2022/08/17 06:10:25;;;;;;;4.28;3.60;;;;;26.20;100874.00;;;;5087763;28;20226;-78
2022/08/17 06:13:03;;;;;;;4.70;4.07;;;;;26.30;100880.00;;;;5084368;28;20199;-78
2022/08/17 06:15:34;;;;;;;4.60;3.83;;;;;26.30;100875.00;;;;5079410;28;20293;-77
2022/08/17 06:18:08;;;;;;;3.28;2.97;;;;;26.30;100879.00;;;;5088861;28;20190;-78
2022/08/17 06:20:46;;;;;;;4.00;3.55;;;;;26.40;100891.00;;;;5071804;28;20203;-78
2022/08/17 06:23:18;;;;;;;4.50;3.92;;;;;26.40;100908.00;;;;5087297;28;20260;-79
2022/08/17 06:25:49;;;;;;;4.22;3.67;;;;;26.50;100904.00;;;;5088056;28;20202;-78
2022/08/17 06:28:25;;;;;;;5.88;3.42;;;;;26.50;100903.00;;;;5088031;28;20194;-78
2022/08/17 06:31:05;;;;;;;3.67;3.38;;;;;26.50;100900.00;;;;5087543;28;20238;-78
2022/08/17 06:33:38;;;;;;;3.95;3.55;;;;;26.60;100906.00;;;;5087623;28;20236;-79
2022/08/17 06:36:17;;;;;;;4.68;3.58;;;;;26.60;100912.00;;;;5088945;28;20348;-78
2022/08/17 06:39:03;;;;;;;3.75;3.45;;;;;26.60;100903.00;;;;5085617;28;20206;-79
2022/08/17 06:41:37;;;;;;;4.25;3.53;;;;;26.70;100903.00;;;;5086566;28;20205;-78
2022/08/17 06:44:13;;;;;;;5.18;3.45;;;;;26.70;100906.00;;;;5087947;28;20218;-78
2022/08/17 06:46:47;;;;;;;6.13;2.65;;;;;26.80;100912.00;;;;5083250;28;20668;-78
2022/08/17 06:49:20;;;;;;;4.18;3.45;;;;;26.80;100908.00;;;;5087102;28;20224;-78
2022/08/17 06:51:53;;;;;;;3.95;3.20;;;;;26.80;100909.00;;;;5088345;28;20236;-78
2022/08/17 06:54:31;;;;;;;5.60;3.45;;;;;26.80;100908.00;;;;5084442;28;20651;-78
2022/08/17 06:57:06;;;;;;;4.35;3.95;;;;;26.90;100898.00;;;;5086913;28;20238;-79
2022/08/17 06:59:43;;;;;;;4.03;3.55;;;;;26.90;100906.00;;;;5076914;28;20706;-79
2022/08/17 07:02:18;;;;;;;3.50;3.17;;;;;26.90;100900.00;;;;5087080;28;20218;-78
2022/08/17 07:04:47;;;;;;;4.15;3.75;;;;;26.90;100895.00;;;;5086592;28;20185;-79
2022/08/17 07:10:01;;;;;;;4.00;3.60;;;;;26.90;100901.00;;;;5085522;28;20233;-79
2022/08/17 07:12:37;;;;;;;4.53;3.88;;;;;26.90;100908.00;;;;5087151;28;20217;-78
2022/08/17 07:15:12;;;;;;;4.38;3.97;;;;;26.90;100906.00;;;;5086013;28;20636;-77
2022/08/17 07:17:41;;;;;;;4.95;4.10;;;;;27.00;100917.00;;;;5089033;28;20201;-78
2022/08/17 07:20:11;;;;;;;3.60;3.30;;;;;27.00;100911.00;;;;5087471;28;20194;-78
2022/08/17 07:22:45;;;;;;;3.85;3.50;;;;;27.00;100909.00;;;;5087860;28;20654;-78
2022/08/17 07:25:16;;;;;;;5.03;3.83;;;;;27.00;100922.00;;;;5090370;28;20201;-77
2022/08/17 07:27:49;;;;;;;4.10;3.70;;;;;27.00;100910.00;;;;5091289;28;20704;-79
2022/08/17 07:30:20;;;;;;;5.03;4.55;;;;;27.00;100909.00;;;;5089308;28;20607;-78
2022/08/17 07:32:52;;;;;;;5.32;4.47;;;;;27.00;100918.00;;;;5081298;28;20202;-80
2022/08/17 07:35:22;;;;;;;5.40;4.90;;;;;27.00;100925.00;;;;5089954;28;20293;-80
2022/08/17 07:37:54;;;;;;;4.50;4.07;;;;;27.00;100919.00;;;;5091560;28;20216;-79
2022/08/17 07:40:29;;;;;;;4.65;4.25;;;;;27.00;100921.00;;;;5090178;28;20213;-79
2022/08/17 07:43:23;;;;;;;5.38;4.50;;;;;27.00;100935.00;;;;5091654;28;20225;-80
2022/08/17 07:48:42;;;;;;;5.40;4.90;;;;;27.10;100926.00;;;;5090076;28;20197;-79
2022/08/17 07:51:18;;;;;;;7.03;5.15;;;;;27.10;100931.00;;;;5086059;28;20753;-78
2022/08/17 07:53:45;;;;;;;5.18;4.70;;;;;27.20;100928.00;;;;5091133;28;20229;-79
2022/08/17 07:56:32;;;;;;;5.35;4.78;;;;;27.10;100928.00;;;;5087910;28;20186;-78
2022/08/17 07:59:13;;;;;;;7.22;4.97;;;;;27.10;100938.00;;;;5085878;28;20205;-79
2022/08/17 08:01:41;;;;;;;7.22;5.32;;;;;27.20;100935.00;;;;5091633;28;20729;-79
2022/08/17 08:04:31;;;;;;;5.78;5.28;;;;;27.10;100937.00;;;;5089638;28;20550;-79
2022/08/17 08:07:02;;;;;;;6.43;5.82;;;;;27.20;100941.00;;;;5090965;28;20199;-78
2022/08/17 08:09:36;;;;;;;6.15;5.03;;;;;27.20;100940.00;;;;5091091;28;20544;-78
2022/08/17 08:12:25;;;;;;;5.80;5.30;;;;;27.10;100936.00;;;;5089298;28;20202;-79
2022/08/17 08:14:57;;;;;;;5.25;4.82;;;;;27.20;100944.00;;;;5070918;28;20669;-79
2022/08/17 08:17:28;;;;;;;6.15;5.57;;;;;27.20;100938.00;;;;5086940;28;20214;-79
2022/08/17 08:19:57;;;;;;;8.02;5.63;;;;;27.30;100947.00;;;;5088459;28;20237;-79
2022/08/17 08:22:33;;;;;;;6.20;5.60;;;;;27.20;100946.00;;;;5089594;28;20575;-79
2022/08/17 08:25:14;;;;;;;8.25;4.93;;;;;27.20;100951.00;;;;5091271;28;20209;-79
2022/08/17 08:27:57;;;;;;;5.43;4.93;;;;;27.20;100956.00;;;;5090869;28;20320;-77
2022/08/17 08:30:24;;;;;;;5.80;5.20;;;;;27.30;100963.00;;;;5069589;28;20202;-78
2022/08/17 08:33:11;;;;;;;6.38;5.70;;;;;27.30;100972.00;;;;5088041;28;20213;-78
2022/08/17 08:35:44;;;;;;;6.65;5.57;;;;;27.30;100975.00;;;;5088222;28;20729;-76
2022/08/17 08:38:22;;;;;;;6.07;5.55;;;;;27.30;100979.00;;;;5083297;28;20238;-79
2022/08/17 08:41:11;;;;;;;6.25;5.65;;;;;27.30;100982.00;;;;5090497;28;20195;-79
2022/08/17 08:43:52;;;;;;;6.13;5.53;;;;;27.30;100981.00;;;;5089431;28;20239;-78
2022/08/17 08:46:29;;;;;;;5.65;5.10;;;;;27.40;100981.00;;;;5089862;28;20204;-80
2022/08/17 08:49:36;;;;;;;6.22;5.28;;;;;27.40;100984.00;;;;5088049;28;20198;-77
2022/08/17 08:52:12;;;;;;;5.03;4.53;;;;;27.50;100980.00;;;;5047258;28;20209;-78
2022/08/17 08:54:52;;;;;;;6.20;5.60;;;;;27.50;100970.00;;;;5089482;28;20571;-78
2022/08/17 08:57:22;;;;;;;6.20;5.70;;;;;27.60;100966.00;;;;5084289;28;20194;-78
2022/08/17 09:00:12;;;;;;;7.20;6.07;;;;;27.50;100957.00;;;;5085348;28;20205;-78
2022/08/17 09:03:01;;;;;;;5.68;5.18;;;;;27.50;100971.00;;;;5054091;28;20611;-78
2022/08/17 09:05:38;;;;;;;5.78;5.28;;;;;27.60;100976.00;;;;5072604;28;20271;-79
2022/08/17 09:08:15;;;;;;;5.60;4.95;;;;;27.50;100982.00;;;;5090436;28;20222;-79
2022/08/17 09:10:55;;;;;;;5.50;4.97;;;;;27.50;100986.00;;;;5077814;28;20262;-78
2022/08/17 09:13:28;;;;;;;5.35;4.75;;;;;27.60;101004.00;;;;5085142;28;20986;-78
2022/08/17 09:16:02;;;;;;;5.63;5.10;;;;;27.60;101026.00;;;;5084020;28;20691;-81
2022/08/17 09:18:33;;;;;;;4.53;4.13;;;;;27.60;101052.00;;;;5086451;28;20202;-79
2022/08/17 09:21:05;;;;;;;5.40;4.90;;;;;27.60;101065.00;;;;5087597;28;20209;-78
2022/08/17 09:23:37;;;;;;;5.50;5.00;;;;;27.50;101060.00;;;;5084454;28;20222;-79
2022/08/17 09:26:10;;;;;;;4.38;3.97;;;;;27.50;101051.00;;;;5087998;28;20228;-80
2022/08/17 09:28:41;;;;;;;5.68;5.10;;;;;27.50;101027.00;;;;5089205;28;20202;-80
2022/08/17 09:31:20;;;;;;;5.20;4.55;;;;;27.40;100987.00;;;;5088484;28;20597;-79
2022/08/17 09:33:50;;;;;;;5.63;5.07;;;;;27.30;100945.00;;;;5069398;28;20194;-79
2022/08/17 09:36:25;;;;;;;4.95;4.40;;;;;27.10;100935.00;;;;5092244;28;20210;-80
2022/08/17 09:38:58;;;;;;;6.50;4.47;;;;;27.00;100936.00;;;;5098669;28;20205;-81
2022/08/17 09:41:33;;;;;;;5.90;5.07;;;;;26.90;100917.00;;;;5092758;28;20205;-81
2022/08/17 09:44:13;;;;;;;5.68;4.82;;;;;26.80;100909.00;;;;5073036;28;20233;-80
2022/08/17 09:46:51;;;;;;;5.72;4.78;;;;;26.80;100905.00;;;;5087367;28;20586;-80
2022/08/17 09:49:30;;;;;;;8.32;4.63;;;;;26.70;100900.00;;;;5089011;28;20682;-80
2022/08/17 09:52:03;;;;;;;5.45;4.95;;;;;26.80;100910.00;;;;5089403;28;20651;-80
2022/08/17 09:54:32;;;;;;;5.18;4.72;;;;;26.80;100914.00;;;;5088911;28;20194;-80
2022/08/17 09:57:07;;;;;;;5.63;5.13;;;;;26.80;100914.00;;;;5088227;28;20202;-81
2022/08/17 09:59:45;;;;;;;5.07;4.60;;;;;26.90;100919.00;;;;5088925;28;20213;-80
2022/08/17 10:02:41;;;;;;;6.13;4.80;;;;;26.80;100934.00;;;;5089661;28;20202;-80
2022/08/17 10:05:14;;;;;;;5.05;4.50;;;;;26.90;100938.00;;;;5088704;28;20231;-80
2022/08/17 10:07:46;;;;;;;4.88;4.43;;;;;26.90;100953.00;;;;5088891;28;20198;-80
2022/08/17 10:10:19;;;;;;;5.20;4.60;;;;;26.90;100968.00;;;;5088967;28;20222;-79
2022/08/17 10:12:51;;;;;;;7.28;5.13;;;;;26.80;100963.00;;;;5088758;28;20205;-80
2022/08/17 10:15:26;;;;;;;4.47;4.07;;;;;26.80;100965.00;;;;5088520;28;20213;-80
2022/08/17 10:18:07;;;;;;;5.72;5.15;;;;;26.70;100975.00;;;;5088028;28;20198;-80
2022/08/17 10:20:41;;;;;;;5.53;4.88;;;;;26.80;100986.00;;;;5088716;28;20233;-80
2022/08/17 10:26:14;;;;;;;5.35;4.50;;;;;26.90;101001.00;;;;5088680;28;20202;-80
2022/08/17 10:28:48;;;;;;;5.75;5.25;;;;;26.90;101011.00;;;;5088955;28;20198;-80
2022/08/17 10:31:23;;;;;;;5.85;5.35;;;;;27.00;101008.00;;;;5089073;28;20194;-80
2022/08/17 10:34:17;;;;;;;4.75;4.35;;;;;26.90;101015.00;;;;5088847;28;20193;-80
2022/08/17 10:36:53;;;;;;;8.82;5.53;;;;;27.00;101013.00;;;;5088394;28;20190;-80
2022/08/17 10:39:31;;;;;;;5.97;5.03;;;;;27.00;101006.00;;;;5088790;28;20202;-80
2022/08/17 10:42:10;;;;;;;5.30;4.80;;;;;27.10;101013.00;;;;5088757;28;20205;-80
2022/08/17 10:44:48;;;;;;;5.78;5.10;;;;;27.10;101016.00;;;;5088695;28;20233;-79
2022/08/17 10:47:18;;;;;;;5.72;5.22;;;;;27.10;101025.00;;;;5088338;28;20568;-80
2022/08/17 10:49:52;;;;;;;6.07;5.47;;;;;27.10;101026.00;;;;5088085;28;20205;-80
2022/08/17 10:52:48;;;;;;;5.85;5.35;;;;;27.00;101033.00;;;;5088526;28;20194;-80
2022/08/17 10:55:19;;;;;;;5.07;4.68;;;;;27.10;101035.00;;;;5088539;28;20259;-80
2022/08/17 10:57:48;;;;;;;9.23;5.57;;;;;27.20;101038.00;;;;5087311;28;20652;-79
2022/08/17 11:01:00;;;;;;;5.40;4.93;;;;;27.10;101059.00;;;;5088109;28;20676;-80
2022/08/17 11:03:28;;;;;;;4.72;4.32;;;;;27.20;101068.00;;;;5087913;28;20286;-80
2022/08/17 11:06:13;;;;;;;5.93;5.28;;;;;27.10;101081.00;;;;5087716;28;20197;-80
2022/08/17 11:09:08;;;;;;;7.57;5.78;;;;;27.10;101090.00;;;;5088012;28;20198;-80
2022/08/17 11:12:14;;;;;;;5.78;5.20;;;;;27.10;101094.00;;;;5087699;28;20210;-79
2022/08/17 11:14:56;;;;;;;5.97;5.38;;;;;27.10;101093.00;;;;5076240;28;20221;-80
2022/08/17 11:18:00;;;;;;;6.53;5.82;;;;;27.10;101090.00;;;;5088312;28;20198;-79
2022/08/17 11:20:52;;;;;;;6.55;5.95;;;;;27.10;101084.00;;;;5023634;28;20281;-79
2022/08/17 11:23:56;;;;;;;6.35;5.85;;;;;27.00;101066.00;;;;5068767;28;20214;-79
2022/08/17 11:26:27;;;;;;;7.05;5.82;;;;;27.10;101054.00;;;;5067680;28;20231;-79
2022/08/17 11:28:58;;;;;;;6.53;5.15;;;;;27.10;101059.00;;;;5068712;28;20206;-79
2022/08/17 11:31:33;;;;;;;5.90;5.38;;;;;27.00;101069.00;;;;5068696;28;20205;-80
2022/08/17 11:34:07;;;;;;;11.27;6.35;;;;;27.00;101074.00;;;;5087713;28;20210;-79
2022/08/17 11:37:06;;;;;;;6.90;6.13;;;;;26.90;101068.00;;;;5088276;28;20221;-79
2022/08/17 11:39:55;;;;;;;5.75;5.25;;;;;26.90;101081.00;;;;5086956;28;20209;-79
2022/08/17 11:42:35;;;;;;;6.85;6.18;;;;;26.90;101080.00;;;;5087149;28;20292;-79
2022/08/17 11:45:22;;;;;;;7.13;6.43;;;;;26.90;101073.00;;;;5087391;28;20229;-79
2022/08/17 11:54:04;;;;;;;7.55;6.80;;;;;26.70;101065.00;;;;5024307;28;20290;-79
2022/08/17 11:56:45;;;;;;;6.75;5.90;;;;;26.80;101052.00;;;;5071013;28;20292;-79
2022/08/17 11:59:50;;;;;;;7.32;6.57;;;;;26.60;101043.00;;;;5087827;28;20202;-80
2022/08/17 12:02:33;;;;;;;7.38;6.70;;;;;26.60;101035.00;;;;5087316;28;20565;-79
2022/08/17 12:05:10;;;;;;;7.40;6.70;;;;;26.70;101041.00;;;;5087480;28;20222;-80
2022/08/17 12:07:42;;;;;;;9.25;6.95;;;;;26.60;101035.00;;;;5087514;28;20201;-81
2022/08/17 12:10:12;;;;;;;8.05;6.13;;;;;26.70;101041.00;;;;5090934;28;20226;-80
2022/08/17 12:12:42;;;;;;;6.75;6.05;;;;;26.60;101044.00;;;;5072369;28;20230;-79
2022/08/17 12:15:23;;;;;;;5.97;5.43;;;;;26.60;101043.00;;;;5070664;28;20234;-79
2022/08/17 12:17:52;;;;;;;7.45;6.43;;;;;26.60;101032.00;;;;5081381;28;20301;-80
2022/08/17 12:20:24;;;;;;;7.22;6.53;;;;;26.60;101032.00;;;;5091150;28;20669;-80
2022/08/17 12:22:59;;;;;;;7.05;6.47;;;;;26.60;101024.00;;;;5091448;28;20186;-80
2022/08/17 12:25:33;;;;;;;7.88;6.40;;;;;26.60;101019.00;;;;5090880;28;20279;-80
2022/08/17 12:28:02;;;;;;;7.95;6.40;;;;;26.60;101012.00;;;;5091815;28;20226;-80
2022/08/17 12:30:30;;;;;;;7.80;7.00;;;;;26.60;101022.00;;;;5091236;28;20761;-80
2022/08/17 12:32:57;;;;;;;7.60;6.80;;;;;26.60;101034.00;;;;5082569;28;20210;-80
2022/08/17 12:35:28;;;;;;;7.40;6.70;;;;;26.60;101039.00;;;;5088350;28;20679;-79
2022/08/17 12:37:57;;;;;;;9.38;8.27;;;;;26.60;101045.00;;;;5086003;28;20247;-81
2022/08/17 12:40:27;;;;;;;7.82;7.03;;;;;26.60;101039.00;;;;5089440;28;20247;-80
2022/08/17 12:42:56;;;;;;;9.27;7.35;;;;;26.60;101037.00;;;;5090207;28;20202;-80
2022/08/17 12:45:29;;;;;;;7.68;6.93;;;;;26.60;101041.00;;;;5089369;28;20238;-80
2022/08/17 12:48:05;;;;;;;8.77;7.60;;;;;26.60;101045.00;;;;5079340;28;20195;-81
2022/08/17 12:50:33;;;;;;;7.50;6.78;;;;;26.70;101049.00;;;;5089600;28;20205;-80
2022/08/17 12:53:01;;;;;;;7.50;6.63;;;;;26.70;101052.00;;;;5089521;28;20205;-80
2022/08/17 12:55:29;;;;;;;9.60;7.97;;;;;26.70;101056.00;;;;5087231;28;20206;-81